Airfield :
LOGIN :

Register | Disclaimer

   EN    FR    IT 

 










Legend :    VFR   Marginal VFR   IFR   Intensive IFR   Very Intensive IFR
Visi :
Ceiling :
>= 8 km
>= 3000ft
5 to 8 km
1000 to 3000 ft
1500m to 5 km
500 to 1000 ft
800 to 1500m
200 to 500 ft
< 800m
< 200 ft
Symbols :   Thunderstorms  Fog  Heavy snow  Heavy precipitations  Wind > 20 kt
SIGMETs :     Misc.  Thunderstorms  Icing  Turbulence  Mountain Waves  Volcanic Ashes







- Airport Elevation : 276 ft


LYVR - Vršac International

CURRENT METAR :
  • 121530Z 14016KT CAVOK 16/04 Q1013 NOSIG

EXPIRED METARs :
  • 121500Z 13017KT 100V160 CAVOK 16/05 Q1013 NOSIG
  • 121430Z 13017KT CAVOK 16/05 Q1013 NOSIG
  • 121400Z 13015KT 110V170 CAVOK 16/05 Q1013 NOSIG
  • 121330Z 15018KT CAVOK 17/05 Q1013 NOSIG
  • 121300Z 15019KT CAVOK 16/05 Q1012 NOSIG

TAF TAF LYVR
Valid from the 12 at 12:00 until the 13 at 12:00 UTC


121100Z 1212/1312 15020G35KT CAVOK TX16/1213Z TN06/1312Z
BECMG 1215/1217 14013G27KT
BECMG 1307/1309 32009KT
No reported NOTAMs for that airfield.



MET'MAP, your aeronautical weather chart ! - Copyright ORBIFLY December 2007 - Disclaimer

ORBIFLY MET'MAP TEAM :

Programming & Development : Alexandra Zaïnal
Concept & Development : Baudouin d'Aumeries
Co-Development & Prog : Marc-Olivier Méhu
Technical & hardware support : Manuel Goepfert

Contact : metmap@orbifly.com




SOURCES & CREDITS :

   NOAA